createdAt,value
2023-03-15T00:00:20.784Z,27.83
2023-03-15T00:02:52.084Z,24.02
2023-03-15T00:05:24.407Z,24.63
2023-03-15T00:07:59.377Z,25.00
2023-03-15T00:10:32.904Z,24.52
2023-03-15T00:13:06.282Z,25.67
2023-03-15T00:15:35.386Z,25.05
2023-03-15T00:18:07.687Z,25.55
2023-03-15T00:20:48.424Z,24.38
2023-03-15T00:23:27.821Z,25.17
2023-03-15T00:26:13.164Z,24.23
2023-03-15T00:28:57.689Z,25.27
2023-03-15T00:31:36.364Z,24.77
2023-03-15T00:34:07.466Z,24.85
2023-03-15T00:36:36.054Z,24.52
2023-03-15T00:39:15.769Z,26.27
2023-03-15T00:41:59.289Z,24.52
2023-03-15T00:44:29.297Z,24.98
2023-03-15T00:47:00.214Z,24.60
2023-03-15T00:49:31.786Z,26.80
2023-03-15T00:52:00.954Z,24.25
2023-03-15T00:54:35.491Z,25.35
2023-03-15T00:57:07.215Z,24.38
2023-03-15T00:59:53.386Z,23.13
2023-03-15T01:02:49.363Z,23.73
2023-03-15T01:05:30.407Z,27.48
2023-03-15T01:10:49.777Z,25.27
2023-03-15T01:13:28.239Z,26.25
2023-03-15T01:15:58.056Z,24.25
2023-03-15T01:18:32.417Z,22.55
2023-03-15T01:21:15.911Z,28.08
2023-03-15T01:23:55.425Z,23.73
2023-03-15T01:26:53.695Z,23.20
2023-03-15T01:29:32.574Z,24.58
2023-03-15T01:32:02.926Z,24.58
2023-03-15T01:34:52.200Z,22.40
2023-03-15T01:37:24.853Z,24.08
2023-03-15T01:39:55.215Z,24.00
2023-03-15T01:42:35.337Z,23.27
2023-03-15T01:45:05.401Z,23.58
2023-03-15T01:47:34.475Z,23.88
2023-03-15T01:50:11.862Z,22.75
2023-03-15T01:52:47.314Z,22.50
2023-03-15T01:55:24.565Z,25.13
2023-03-15T01:58:32.133Z,23.38
2023-03-15T02:01:09.381Z,23.25
2023-03-15T02:04:09.226Z,24.00
2023-03-15T02:07:00.962Z,24.52
2023-03-15T02:09:39.976Z,33.33
2023-03-15T02:12:24.625Z,26.45
2023-03-15T02:15:18.145Z,24.33
2023-03-15T02:17:54.645Z,23.20
2023-03-15T02:20:38.038Z,22.40
2023-03-15T02:23:14.225Z,25.75
2023-03-15T02:26:14.356Z,22.75
2023-03-15T02:31:38.705Z,21.35
2023-03-15T02:34:12.357Z,24.15
2023-03-15T02:36:49.187Z,21.77
2023-03-15T02:39:47.465Z,27.02
2023-03-15T02:42:40.847Z,21.52
2023-03-15T02:45:15.805Z,25.42
2023-03-15T02:48:03.179Z,22.33
2023-03-15T02:50:34.889Z,21.02
2023-03-15T02:55:57.935Z,21.50
2023-03-15T02:58:27.759Z,21.40
2023-03-15T03:00:59.090Z,21.02
2023-03-15T03:03:36.571Z,22.48
2023-03-15T03:06:13.993Z,26.02
2023-03-15T03:08:47.375Z,22.80
2023-03-15T03:11:23.351Z,22.88
2023-03-15T03:13:55.057Z,22.60
2023-03-15T03:16:39.780Z,22.95
2023-03-15T03:19:42.846Z,25.70
2023-03-15T03:22:13.662Z,25.77
2023-03-15T03:24:46.614Z,23.20
2023-03-15T03:27:17.215Z,25.23
2023-03-15T03:29:55.539Z,22.85
2023-03-15T03:32:37.177Z,22.70
2023-03-15T03:35:06.894Z,24.15
2023-03-15T03:37:46.143Z,22.08
2023-03-15T03:43:13.033Z,24.20
2023-03-15T03:45:51.289Z,21.95
2023-03-15T03:48:47.437Z,24.20
2023-03-15T03:51:16.422Z,27.98
2023-03-15T03:53:48.500Z,25.85
2023-03-15T03:56:24.463Z,24.45
2023-03-15T03:59:03.073Z,24.02
2023-03-15T04:04:33.536Z,28.42
2023-03-15T04:07:05.125Z,24.00
2023-03-15T04:09:40.314Z,23.35
2023-03-15T04:12:19.873Z,25.35
2023-03-15T04:14:51.381Z,23.27
2023-03-15T04:17:23.821Z,23.58
2023-03-15T04:23:38.957Z,23.10
2023-03-15T04:26:09.903Z,23.88
2023-03-15T04:29:00.097Z,21.60
2023-03-15T04:31:29.047Z,27.70
2023-03-15T04:34:06.348Z,22.52
2023-03-15T04:36:37.906Z,21.70
2023-03-15T04:39:35.948Z,24.08
2023-03-15T04:42:06.996Z,23.02
2023-03-15T04:44:36.710Z,22.05
2023-03-15T04:47:08.931Z,24.33
2023-03-15T04:49:48.750Z,22.15
2023-03-15T04:52:55.183Z,23.15
2023-03-15T04:55:34.354Z,22.48
2023-03-15T04:58:16.254Z,25.35
2023-03-15T05:00:47.743Z,21.92
2023-03-15T05:03:19.546Z,25.38
2023-03-15T05:05:51.521Z,23.55
2023-03-15T05:08:29.542Z,24.00
2023-03-15T05:10:58.619Z,23.60
2023-03-15T05:13:35.903Z,24.17
2023-03-15T05:16:17.098Z,23.85
2023-03-15T05:19:03.035Z,22.90
2023-03-15T05:21:42.559Z,21.02
2023-03-15T05:24:18.719Z,24.55
2023-03-15T05:27:13.684Z,20.98
2023-03-15T05:32:27.076Z,20.63
2023-03-15T05:35:00.213Z,19.83
2023-03-15T05:37:30.194Z,21.13
2023-03-15T05:40:10.846Z,20.60
2023-03-15T05:42:40.562Z,21.00
2023-03-15T05:45:13.356Z,23.83
2023-03-15T05:50:12.650Z,25.20
2023-03-15T05:52:41.330Z,20.70
2023-03-15T05:55:13.348Z,23.33
2023-03-15T05:57:43.186Z,20.40
2023-03-15T06:00:16.649Z,26.05
2023-03-15T06:02:51.166Z,21.13
2023-03-15T06:05:21.038Z,24.60
2023-03-15T06:10:36.745Z,22.15
2023-03-15T06:13:05.683Z,22.65
2023-03-15T06:15:36.691Z,20.10
2023-03-15T06:18:15.295Z,51.20
2023-03-15T06:21:36.686Z,20.35
2023-03-15T06:24:13.237Z,24.13
2023-03-15T06:26:49.801Z,20.63
2023-03-15T06:29:27.345Z,47.40
2023-03-15T06:31:58.555Z,20.42
2023-03-15T06:34:27.322Z,21.00
2023-03-15T06:36:59.162Z,20.98
2023-03-15T06:39:28.844Z,369.87
2023-03-15T06:42:08.958Z,21.30
2023-03-15T06:44:38.985Z,20.95
2023-03-15T06:47:13.615Z,23.85
2023-03-15T06:49:51.534Z,21.35
2023-03-15T06:52:20.913Z,23.42
2023-03-15T06:54:51.778Z,20.95
2023-03-15T06:57:25.333Z,23.13
2023-03-15T06:59:55.468Z,21.17
2023-03-15T07:02:24.281Z,21.10
2023-03-15T07:05:07.266Z,22.15
2023-03-15T07:07:38.616Z,21.45
2023-03-15T07:10:11.650Z,24.63
2023-03-15T07:12:43.991Z,21.42
2023-03-15T07:15:17.513Z,23.60
2023-03-15T07:17:49.944Z,22.15
2023-03-15T07:20:23.291Z,22.83
2023-03-15T07:22:52.630Z,21.77
2023-03-15T07:25:26.168Z,21.63
2023-03-15T07:28:08.281Z,23.38
2023-03-15T07:30:38.930Z,21.13
2023-03-15T07:33:11.802Z,24.17
2023-03-15T07:35:50.945Z,22.08
2023-03-15T07:38:23.609Z,25.13
2023-03-15T07:40:54.859Z,77.53
2023-03-15T07:43:27.429Z,21.33
2023-03-15T07:45:57.597Z,21.30
2023-03-15T07:48:29.666Z,22.38
2023-03-15T07:51:01.481Z,22.58
2023-03-15T07:53:33.496Z,22.08
2023-03-15T07:56:03.790Z,22.25
2023-03-15T07:58:37.407Z,22.88
2023-03-15T08:01:16.140Z,24.83
2023-03-15T08:03:46.786Z,24.08
2023-03-15T08:06:17.993Z,25.25
2023-03-15T08:08:50.156Z,22.67
2023-03-15T08:11:22.518Z,25.00
2023-03-15T08:14:09.933Z,22.20
2023-03-15T08:16:41.830Z,23.15
2023-03-15T08:19:36.110Z,25.10
2023-03-15T08:22:06.647Z,25.67
2023-03-15T08:24:35.628Z,27.00
2023-03-15T08:27:29.606Z,227.68
2023-03-15T08:30:06.032Z,24.63
2023-03-15T08:32:57.992Z,312.33
2023-03-15T08:35:31.157Z,24.98
2023-03-15T08:38:03.651Z,25.75
2023-03-15T08:40:32.799Z,27.60
2023-03-15T08:43:02.486Z,29.95
2023-03-15T08:48:29.745Z,29.60
2023-03-15T08:51:04.370Z,30.27
2023-03-15T08:53:34.494Z,35.13
2023-03-15T08:56:05.053Z,29.27
2023-03-15T08:58:38.204Z,33.45
2023-03-15T09:01:08.895Z,30.63
2023-03-15T09:03:38.888Z,27.75
2023-03-15T09:06:11.242Z,36.15
2023-03-15T09:08:42.081Z,263.88
2023-03-15T09:13:56.383Z,30.65
2023-03-15T09:16:28.009Z,31.77
2023-03-15T09:18:59.386Z,33.08
2023-03-15T09:21:37.018Z,33.65
2023-03-15T09:24:06.980Z,37.88
2023-03-15T09:26:38.155Z,42.28
2023-03-15T09:29:07.963Z,34.00
2023-03-15T09:31:40.391Z,31.98
2023-03-15T09:34:11.377Z,33.70
2023-03-15T09:36:42.619Z,29.83
2023-03-15T09:39:12.396Z,32.95
2023-03-15T09:41:44.807Z,30.65
2023-03-15T09:44:51.241Z,36.55
2023-03-15T09:47:40.969Z,32.28
2023-03-15T09:50:21.235Z,32.72
2023-03-15T09:53:04.949Z,28.90
2023-03-15T09:55:39.881Z,29.27
2023-03-15T09:58:15.762Z,34.33
2023-03-15T10:00:52.757Z,29.50
2023-03-15T10:03:38.037Z,29.48
2023-03-15T10:06:14.761Z,31.25
2023-03-15T10:08:44.848Z,30.83
2023-03-15T10:11:25.077Z,34.97
2023-03-15T10:14:21.075Z,32.92
2023-03-15T10:16:53.151Z,33.28
2023-03-15T10:19:39.670Z,33.22
2023-03-15T10:22:24.247Z,35.65
2023-03-15T10:24:58.970Z,28.63
2023-03-15T10:27:38.475Z,36.10
2023-03-15T10:30:27.736Z,30.35
2023-03-15T10:33:01.558Z,38.17
2023-03-15T10:35:39.104Z,30.05
2023-03-15T10:38:19.113Z,33.28
2023-03-15T10:41:17.842Z,78.07
2023-03-15T10:44:01.236Z,40.30
2023-03-15T10:46:35.756Z,32.40
2023-03-15T10:49:12.219Z,31.15
2023-03-15T10:51:45.742Z,31.55
2023-03-15T10:54:18.871Z,33.58
2023-03-15T10:56:51.170Z,33.03
2023-03-15T10:59:26.659Z,35.00
2023-03-15T11:02:08.713Z,36.08
2023-03-15T11:04:47.382Z,999.90
2023-03-15T11:07:21.471Z,36.40
2023-03-15T11:09:57.356Z,999.90
2023-03-15T11:12:32.231Z,999.90
2023-03-15T11:15:06.035Z,999.90
2023-03-15T11:17:40.149Z,999.90
2023-03-15T11:20:27.410Z,999.90
2023-03-15T11:23:03.407Z,28.58
2023-03-15T11:25:37.317Z,27.27
2023-03-15T11:28:08.814Z,999.90
2023-03-15T11:30:52.303Z,999.90
2023-03-15T11:33:36.932Z,759.25
2023-03-15T11:36:11.178Z,38.72
2023-03-15T11:38:45.842Z,31.60
2023-03-15T11:41:29.348Z,29.92
2023-03-15T11:44:07.896Z,31.40
2023-03-15T11:46:48.748Z,31.67
2023-03-15T11:49:25.807Z,32.95
2023-03-15T11:51:57.916Z,33.10
2023-03-15T11:54:32.310Z,31.13
2023-03-15T11:57:07.763Z,32.25
2023-03-15T11:59:40.340Z,29.75
2023-03-15T12:05:15.913Z,31.65
2023-03-15T12:08:19.681Z,31.05
2023-03-15T12:10:53.634Z,32.30
2023-03-15T12:13:28.454Z,31.02
2023-03-15T12:15:59.876Z,31.35
2023-03-15T12:18:40.583Z,29.90
2023-03-15T12:21:23.177Z,33.30
2023-03-15T12:26:49.744Z,28.17
2023-03-15T12:29:26.313Z,28.13
2023-03-15T12:32:01.470Z,26.42
2023-03-15T12:34:51.257Z,28.05
2023-03-15T12:37:23.559Z,30.15
2023-03-15T12:40:07.828Z,30.67
2023-03-15T12:43:13.849Z,32.67
2023-03-15T12:46:02.411Z,28.75
2023-03-15T12:48:33.681Z,28.88
2023-03-15T12:51:38.669Z,28.40
2023-03-15T12:54:15.109Z,33.40
2023-03-15T12:56:57.718Z,32.58
2023-03-15T12:59:52.898Z,35.30
2023-03-15T13:02:44.037Z,29.77
2023-03-15T13:05:25.477Z,33.60
2023-03-15T13:08:08.218Z,32.20
2023-03-15T13:11:01.988Z,28.73
2023-03-15T13:13:47.682Z,30.67
2023-03-15T13:16:28.325Z,36.60
2023-03-15T13:19:10.579Z,27.90
2023-03-15T13:21:54.030Z,31.23
2023-03-15T13:24:29.649Z,32.10
2023-03-15T13:27:13.309Z,30.60
2023-03-15T13:29:45.382Z,30.58
2023-03-15T13:32:19.842Z,35.80
2023-03-15T13:34:52.936Z,29.80
2023-03-15T13:37:26.515Z,30.05
2023-03-15T13:39:58.949Z,30.50
2023-03-15T13:42:29.451Z,30.60
2023-03-15T13:45:17.109Z,29.42
2023-03-15T13:47:48.352Z,37.47
2023-03-15T13:50:20.052Z,33.10
2023-03-15T13:52:50.522Z,29.67
2023-03-15T13:55:33.882Z,32.30
2023-03-15T13:58:11.064Z,25.92
2023-03-15T14:00:41.973Z,35.90
2023-03-15T14:03:24.214Z,37.53
2023-03-15T14:05:56.473Z,30.65
2023-03-15T14:08:32.371Z,30.27
2023-03-15T14:11:10.443Z,34.47
2023-03-15T14:13:51.634Z,30.00
2023-03-15T14:16:50.508Z,33.55
2023-03-15T14:19:34.361Z,31.17
2023-03-15T14:22:19.431Z,36.30
2023-03-15T14:24:53.040Z,32.40
2023-03-15T14:27:27.534Z,30.17
2023-03-15T14:29:59.238Z,31.08
2023-03-15T14:32:31.991Z,32.13
2023-03-15T14:35:08.144Z,28.60
2023-03-15T14:37:43.273Z,31.92
2023-03-15T14:40:22.033Z,31.58
2023-03-15T14:42:56.050Z,29.45
2023-03-15T14:45:30.174Z,28.58
2023-03-15T14:48:06.546Z,30.00
2023-03-15T14:50:41.504Z,28.52
2023-03-15T14:53:22.386Z,32.53
2023-03-15T14:55:53.891Z,28.65
2023-03-15T14:58:25.008Z,30.45
2023-03-15T15:00:59.729Z,29.53
2023-03-15T15:03:36.154Z,29.63
2023-03-15T15:06:08.761Z,33.92
2023-03-15T15:11:12.169Z,33.50
2023-03-15T15:13:49.177Z,30.90
2023-03-15T15:16:19.555Z,32.53
2023-03-15T15:18:50.075Z,31.17
2023-03-15T15:21:25.524Z,34.20
2023-03-15T15:23:59.170Z,39.30
2023-03-15T15:26:37.433Z,35.72
2023-03-15T15:29:15.597Z,33.72
2023-03-15T15:31:49.751Z,34.25
2023-03-15T15:34:20.766Z,33.15
2023-03-15T15:36:58.183Z,30.58
2023-03-15T15:39:31.975Z,31.65
2023-03-15T15:42:01.172Z,33.80
2023-03-15T15:44:30.170Z,32.28
2023-03-15T15:47:04.353Z,32.95
2023-03-15T15:49:34.252Z,32.30
2023-03-15T15:52:06.752Z,32.97
2023-03-15T15:54:36.842Z,29.77
2023-03-15T15:57:14.612Z,36.30
2023-03-15T15:59:45.749Z,29.70
2023-03-15T16:02:23.436Z,37.45
2023-03-15T16:04:55.130Z,30.00
2023-03-15T16:07:28.711Z,28.92
2023-03-15T16:10:01.815Z,29.35
2023-03-15T16:12:33.522Z,29.33
2023-03-15T16:15:03.207Z,28.83
2023-03-15T16:17:37.504Z,33.20
2023-03-15T16:20:12.868Z,34.20
2023-03-15T16:22:51.076Z,32.75
2023-03-15T16:25:27.842Z,33.60
2023-03-15T16:27:59.249Z,31.10
2023-03-15T16:30:35.537Z,28.70
2023-03-15T16:33:07.493Z,74.90
2023-03-15T16:35:50.532Z,39.15
2023-03-15T16:38:28.889Z,145.20
2023-03-15T16:41:04.257Z,32.17
2023-03-15T16:43:38.565Z,30.83
2023-03-15T16:46:16.387Z,36.65
2023-03-15T16:48:49.505Z,40.63
2023-03-15T16:51:24.665Z,35.75
2023-03-15T16:54:12.583Z,32.72
2023-03-15T16:56:52.150Z,31.42
2023-03-15T16:59:24.851Z,31.63
2023-03-15T17:01:55.423Z,33.67
2023-03-15T17:04:27.079Z,32.47
2023-03-15T17:06:58.386Z,32.50
2023-03-15T17:09:31.660Z,33.67
2023-03-15T17:12:02.538Z,30.95
2023-03-15T17:14:36.542Z,30.55
2023-03-15T17:17:11.532Z,34.88
2023-03-15T17:19:46.360Z,38.80
2023-03-15T17:22:18.463Z,37.90
2023-03-15T17:25:03.450Z,34.05
2023-03-15T17:27:46.773Z,33.30
2023-03-15T17:30:36.865Z,39.28
2023-03-15T17:33:33.413Z,34.28
2023-03-15T17:36:13.955Z,36.45
2023-03-15T17:39:10.658Z,36.45
2023-03-15T17:42:36.418Z,46.85
2023-03-15T17:45:29.455Z,35.63
2023-03-15T17:48:25.123Z,37.13
2023-03-15T17:51:07.189Z,33.53
2023-03-15T17:56:47.212Z,32.13
2023-03-15T17:59:41.727Z,35.90
2023-03-15T18:02:23.437Z,36.15
2023-03-15T18:05:02.147Z,42.28
2023-03-15T18:07:58.190Z,32.65
2023-03-15T18:10:50.235Z,32.67
2023-03-15T18:13:36.453Z,35.40
2023-03-15T18:16:26.137Z,35.30
2023-03-15T18:19:17.015Z,33.88
2023-03-15T18:22:06.366Z,166.65
2023-03-15T18:24:50.855Z,33.10
2023-03-15T18:27:37.291Z,39.17
2023-03-15T18:30:30.428Z,36.20
2023-03-15T18:33:34.046Z,35.00
2023-03-15T18:36:24.523Z,34.47
2023-03-15T18:39:22.209Z,33.22
2023-03-15T18:42:22.726Z,86.03
2023-03-15T18:49:11.432Z,32.83
2023-03-15T18:52:00.491Z,33.47
2023-03-15T18:54:51.440Z,33.83
2023-03-15T18:57:40.079Z,31.90
2023-03-15T19:00:41.019Z,36.97
2023-03-15T19:03:14.159Z,35.92
2023-03-15T19:06:33.946Z,31.88
2023-03-15T19:09:17.971Z,33.55
2023-03-15T19:11:51.341Z,34.45
2023-03-15T19:14:33.775Z,32.95
2023-03-15T19:17:14.478Z,34.33
2023-03-15T19:20:02.656Z,33.30
2023-03-15T19:22:42.335Z,34.05
2023-03-15T19:25:16.769Z,34.63
2023-03-15T19:27:53.357Z,29.52
2023-03-15T19:30:53.269Z,30.35
2023-03-15T19:33:55.672Z,30.77
2023-03-15T19:36:26.620Z,30.95
2023-03-15T19:39:07.760Z,29.83
2023-03-15T19:41:42.422Z,41.53
2023-03-15T19:44:15.453Z,33.08
2023-03-15T19:46:51.517Z,30.65
2023-03-15T19:49:31.514Z,31.20
2023-03-15T19:52:16.512Z,33.60
2023-03-15T19:54:52.841Z,29.27
2023-03-15T19:57:26.008Z,28.92
2023-03-15T19:59:59.324Z,28.00
2023-03-15T20:02:33.379Z,29.40
2023-03-15T20:05:12.355Z,27.63
2023-03-15T20:07:53.505Z,28.38
2023-03-15T20:10:30.096Z,28.55
2023-03-15T20:13:03.951Z,28.75
2023-03-15T20:15:37.129Z,26.97
2023-03-15T20:18:16.587Z,30.88
2023-03-15T20:21:01.324Z,27.15
2023-03-15T20:26:38.103Z,27.40
2023-03-15T20:29:15.592Z,30.85
2023-03-15T20:32:09.916Z,27.33
2023-03-15T20:34:46.753Z,27.48
2023-03-15T20:37:27.347Z,30.73
2023-03-15T20:40:02.661Z,36.28
2023-03-15T20:42:37.009Z,27.80
2023-03-15T20:45:12.673Z,29.63
2023-03-15T20:48:09.201Z,28.33
2023-03-15T20:50:58.095Z,28.55
2023-03-15T20:53:44.208Z,30.40
2023-03-15T20:56:25.913Z,27.95
2023-03-15T20:59:25.060Z,27.48
2023-03-15T21:02:17.625Z,28.38
2023-03-15T21:05:14.546Z,26.50
2023-03-15T21:07:45.807Z,27.08
2023-03-15T21:10:49.754Z,31.00
2023-03-15T21:13:27.569Z,27.80
2023-03-15T21:16:10.735Z,28.35
2023-03-15T21:18:53.159Z,29.92
2023-03-15T21:21:25.379Z,29.33
2023-03-15T21:24:09.651Z,30.02
2023-03-15T21:26:45.249Z,27.88
2023-03-15T21:29:17.585Z,31.70
2023-03-15T21:31:59.448Z,28.80
2023-03-15T21:34:30.697Z,28.10
2023-03-15T21:37:02.090Z,28.95
2023-03-15T21:40:21.550Z,28.10
2023-03-15T21:42:58.945Z,28.05
2023-03-15T21:45:54.024Z,28.25
2023-03-15T21:48:37.504Z,27.35
2023-03-15T21:51:35.514Z,29.35
2023-03-15T21:54:09.486Z,28.10
2023-03-15T21:56:47.889Z,26.88
2023-03-15T21:59:28.286Z,26.60
2023-03-15T22:02:00.069Z,26.77
2023-03-15T22:07:07.998Z,28.17
2023-03-15T22:09:43.365Z,28.35
2023-03-15T22:12:28.213Z,31.83
2023-03-15T22:15:17.718Z,31.23
2023-03-15T22:17:59.073Z,26.77
2023-03-15T22:20:37.949Z,26.83
2023-03-15T22:23:09.765Z,28.27
2023-03-15T22:25:40.684Z,27.08
2023-03-15T22:28:18.006Z,29.65
2023-03-15T22:30:51.943Z,26.13
2023-03-15T22:33:23.243Z,28.08
2023-03-15T22:36:06.480Z,26.42
2023-03-15T22:38:38.999Z,27.73
2023-03-15T22:41:21.779Z,28.90
2023-03-15T22:43:59.207Z,27.23
2023-03-15T22:46:36.063Z,31.85
2023-03-15T22:49:07.389Z,28.30
2023-03-15T22:51:54.925Z,26.38
2023-03-15T22:54:49.308Z,26.20
2023-03-15T22:57:32.643Z,29.48
2023-03-15T23:03:41.951Z,28.15
2023-03-15T23:06:28.808Z,29.33
2023-03-15T23:09:46.483Z,25.88
2023-03-15T23:12:39.662Z,29.02
2023-03-15T23:15:24.335Z,29.30
2023-03-15T23:18:13.321Z,26.70
2023-03-15T23:20:58.065Z,26.80
2023-03-15T23:23:50.489Z,26.65
2023-03-15T23:27:05.392Z,28.55
2023-03-15T23:30:06.345Z,26.17
2023-03-15T23:32:50.594Z,28.45
2023-03-15T23:35:42.086Z,31.10
2023-03-15T23:38:41.695Z,31.73
2023-03-15T23:41:33.063Z,30.92
2023-03-15T23:45:01.452Z,28.83
2023-03-15T23:48:11.058Z,27.45
2023-03-15T23:51:14.461Z,28.08
2023-03-15T23:54:01.607Z,27.75
2023-03-15T23:56:51.768Z,27.92
